ETAD

Spangdahlem Air Base Airport

Trier, Germany
METAR ETAD 152156Z AUTO 00000KT 9999 CLR 16/12 A3012 RMK AO2 SLP181 T01590123 $
Observed Flight Rules
Aug-15 @ 21:56 UTC (32 minutes ago) Visual Flight Rules
Visibility Clouds
10,000+ meters
  • Clear skies
Temperatures Readings
Current 16°C / 61°F
Dewpoint 12°C / 54°F
Humidity 77%
Altimeter 30.12" Hg
Pressure 1018.1 hPa
Elevation 365
METAR ETAD 152156Z AUTO 00000KT 9999 CLR 16/12 A3012 RMK AO2 SLP181 T01590123 $
Observed Flight Rules
Aug-15 @ 21:56 UTC
(32 minutes ago)
VFR
Clouds
  • Clear skies
Temperature Dewpoint
16°C / 61°F 12°C / 54°F
Humidity Altimeter Pressure
77% 30.12" Hg 1018.1 hPa